aviador You're here:

CYWA Decoded Metar

PETAWAWA in ON, CANADA
Report Time2018-01-19 18:00:00
UTC Time2018-01-19 19:07:12
Flight Rules Old
Wind110° at 06 kt
W.Decomp.*RWY 16: 4.8 kt HW 3.6 kt LCW
W.Rank110° ranks 12
Current wind is above 110° avg. (4.8)
Visibility6437 m
Phenomena:N/A
Clouds:Overcast 015 Hf
Overcast 040 Hf
Expected CloudBase > 1,200 ft AGL from Temp-Dew spread
Ceiling1,500 ft
Temp-3°C (ISA -17)
Dew Point-6°C (80% RH)
AAT-7.9°C
QNH1007 hPa
Density Alt-1,421 ft
Elevation427 ft
Report Wrong Elevation
Raw Report
CYWA 191800Z AUTO 11006KT 4SM OVC015 OVC040 M03/M06 A2974 RMK
SLP081=

Extra information for CYWA:More info

Metar Taf Metar & Taf Last 4 Metars F.Rules Stats Wind Profile Meteogram Temp Stats Airport Information Weather charts Add Link Nearby VenuesMetar ALERT Operation Metar Decoded Social comments